createdAt,value
2022-12-22T00:00:10.315Z,0.91
2022-12-22T00:01:30.295Z,0.66
2022-12-22T00:02:46.485Z,0.85
2022-12-22T00:04:02.286Z,0.75
2022-12-22T00:05:17.647Z,0.67
2022-12-22T00:06:32.799Z,0.38
2022-12-22T00:07:48.359Z,0.78
2022-12-22T00:09:05.628Z,-0.61
2022-12-22T00:10:22.043Z,0.48
2022-12-22T00:11:46.315Z,-0.60
2022-12-22T00:13:01.803Z,0.71
2022-12-22T00:14:17.990Z,-0.98
2022-12-22T00:15:36.389Z,0.99
2022-12-22T00:16:56.269Z,0.91
2022-12-22T00:18:11.852Z,0.72
2022-12-22T00:19:32.393Z,0.58
2022-12-22T00:20:47.907Z,0.47
2022-12-22T00:22:03.415Z,0.53
2022-12-22T00:23:19.097Z,0.57
2022-12-22T00:24:34.612Z,1.40
2022-12-22T00:25:50.154Z,0.83
2022-12-22T00:27:06.178Z,1.65
2022-12-22T00:28:33.176Z,-2.03
2022-12-22T00:29:59.349Z,0.24
2022-12-22T00:31:14.604Z,0.71
2022-12-22T00:32:33.327Z,0.74
2022-12-22T00:33:48.945Z,0.50
2022-12-22T00:35:04.881Z,0.57
2022-12-22T00:36:22.837Z,-0.90
2022-12-22T00:37:38.333Z,1.14
2022-12-22T00:38:54.028Z,0.72
2022-12-22T00:40:09.583Z,0.53
2022-12-22T00:41:25.168Z,-0.75
2022-12-22T00:42:40.436Z,0.92
2022-12-22T00:43:55.941Z,-0.79
2022-12-22T00:45:11.650Z,0.22
2022-12-22T00:46:31.810Z,0.73
2022-12-22T00:47:49.829Z,1.05
2022-12-22T00:49:06.420Z,0.95
2022-12-22T00:50:22.263Z,-0.58
2022-12-22T00:51:37.592Z,-0.27
2022-12-22T00:52:54.505Z,-0.15
2022-12-22T00:55:50.193Z,-0.62
2022-12-22T00:57:06.388Z,0.45
2022-12-22T00:58:25.250Z,-1.08
2022-12-22T00:59:40.742Z,-0.08
2022-12-22T01:00:55.864Z,0.62
2022-12-22T01:02:11.569Z,-0.31
2022-12-22T01:03:29.423Z,0.75
2022-12-22T01:04:45.229Z,0.21
2022-12-22T01:06:00.826Z,0.32
2022-12-22T01:07:16.873Z,0.96
2022-12-22T01:08:32.483Z,-0.62
2022-12-22T01:09:48.618Z,0.18
2022-12-22T01:11:04.376Z,0.20
2022-12-22T01:12:19.910Z,0.49
2022-12-22T01:13:36.064Z,-0.31
2022-12-22T01:14:51.810Z,-0.49
2022-12-22T01:16:07.690Z,0.37
2022-12-22T01:17:23.433Z,-0.13
2022-12-22T01:18:38.549Z,0.69
2022-12-22T01:19:53.958Z,-0.77
2022-12-22T01:21:10.514Z,0.66
2022-12-22T01:22:34.493Z,-0.18
2022-12-22T01:23:50.146Z,-0.37
2022-12-22T01:25:05.655Z,-0.86
2022-12-22T01:26:21.017Z,-0.35
2022-12-22T01:27:36.470Z,0.63
2022-12-22T01:28:51.962Z,0.37
2022-12-22T01:30:07.418Z,0.66
2022-12-22T01:31:35.068Z,1.14
2022-12-22T01:32:50.942Z,0.63
2022-12-22T01:34:06.297Z,-0.91
2022-12-22T01:35:21.810Z,-1.26
2022-12-22T01:36:37.130Z,0.99
2022-12-22T01:37:52.354Z,-0.64
2022-12-22T01:39:07.672Z,0.48
2022-12-22T01:40:23.840Z,0.08
2022-12-22T01:41:40.178Z,1.44
2022-12-22T01:42:55.724Z,0.78
2022-12-22T01:44:11.209Z,0.33
2022-12-22T01:45:49.331Z,0.44
2022-12-22T01:47:06.011Z,0.35
2022-12-22T01:48:21.642Z,0.75
2022-12-22T01:49:42.912Z,1.35
2022-12-22T01:50:58.176Z,-0.26
2022-12-22T01:52:14.408Z,0.69
2022-12-22T01:53:44.013Z,-2.65
2022-12-22T01:55:00.496Z,0.65
2022-12-22T01:56:18.092Z,0.39
2022-12-22T01:57:33.594Z,0.60
2022-12-22T01:58:56.106Z,1.01
2022-12-22T02:00:11.510Z,0.07
2022-12-22T02:01:27.017Z,0.12
2022-12-22T02:02:46.559Z,0.08
2022-12-22T02:04:01.980Z,-0.82
2022-12-22T02:05:23.125Z,-0.56
2022-12-22T02:06:56.278Z,0.35
2022-12-22T02:08:45.615Z,0.29
2022-12-22T02:10:29.049Z,0.55
2022-12-22T02:12:02.356Z,0.63
2022-12-22T02:13:44.528Z,0.60
2022-12-22T02:15:17.600Z,0.46
2022-12-22T02:16:44.335Z,-0.37
2022-12-22T02:18:19.958Z,-2.92
2022-12-22T02:19:57.665Z,0.40
2022-12-22T02:21:23.772Z,-0.94
2022-12-22T02:22:58.462Z,0.61
2022-12-22T02:24:40.017Z,0.70
2022-12-22T02:26:08.670Z,0.30
2022-12-22T02:27:27.329Z,0.52
2022-12-22T02:28:43.137Z,0.35
2022-12-22T02:30:06.890Z,0.35
2022-12-22T02:31:25.379Z,-0.58
2022-12-22T02:32:45.085Z,0.23
2022-12-22T02:34:00.527Z,0.32
2022-12-22T02:35:16.336Z,-0.52
2022-12-22T02:37:07.953Z,0.26
2022-12-22T02:39:08.946Z,1.26
2022-12-22T02:40:40.917Z,1.71
2022-12-22T02:42:14.950Z,1.49
2022-12-22T02:43:44.615Z,-0.03
2022-12-22T02:45:31.131Z,0.84
2022-12-22T02:46:55.975Z,0.49
2022-12-22T02:48:31.297Z,0.26
2022-12-22T02:50:01.993Z,-0.74
2022-12-22T02:51:42.965Z,-1.27
2022-12-22T02:53:03.216Z,-0.16
2022-12-22T02:54:20.326Z,-0.47
2022-12-22T02:55:37.731Z,-0.21
2022-12-22T02:56:53.631Z,-0.72
2022-12-22T02:58:10.411Z,-0.54
2022-12-22T02:59:25.782Z,0.23
2022-12-22T03:00:41.012Z,0.38
2022-12-22T03:02:00.591Z,-0.59
2022-12-22T03:03:16.356Z,-0.09
2022-12-22T03:04:31.837Z,0.45
2022-12-22T03:05:47.350Z,-1.33
2022-12-22T03:07:02.925Z,-1.68
2022-12-22T03:08:18.370Z,0.04
2022-12-22T03:09:33.600Z,0.00
2022-12-22T03:10:49.223Z,0.07
2022-12-22T03:12:04.854Z,0.73
2022-12-22T03:13:20.286Z,-2.07
2022-12-22T03:14:35.537Z,0.97
2022-12-22T03:15:50.856Z,1.06
2022-12-22T03:17:06.276Z,0.26
2022-12-22T03:18:27.690Z,-0.67
2022-12-22T03:19:43.147Z,-0.88
2022-12-22T03:20:58.483Z,-0.24
2022-12-22T03:22:13.988Z,1.26
2022-12-22T03:23:29.600Z,0.26
2022-12-22T03:24:44.992Z,-0.48
2022-12-22T03:25:52.115Z,-1.07
2022-12-22T03:26:48.986Z,-0.16
2022-12-22T03:27:45.746Z,-0.30
2022-12-22T03:28:42.588Z,-1.91
2022-12-22T03:29:39.351Z,0.22
2022-12-22T03:30:36.510Z,-0.75
2022-12-22T03:31:33.357Z,-0.93
2022-12-22T03:32:30.205Z,-0.84
2022-12-22T03:33:27.509Z,-1.20
2022-12-22T03:34:24.327Z,0.08
2022-12-22T03:35:21.168Z,0.05
2022-12-22T03:36:19.331Z,-1.00
2022-12-22T03:37:16.079Z,-0.01
2022-12-22T03:38:12.925Z,-1.11
2022-12-22T03:39:10.090Z,-0.11
2022-12-22T03:40:07.654Z,-0.19
2022-12-22T03:41:04.811Z,-0.59
2022-12-22T03:42:20.528Z,-1.11
2022-12-22T03:43:36.589Z,0.28
2022-12-22T03:44:52.004Z,-0.96
2022-12-22T03:46:30.297Z,-0.22
2022-12-22T03:47:27.204Z,-0.22
2022-12-22T03:48:23.969Z,-0.51
2022-12-22T03:49:22.436Z,0.51
2022-12-22T03:50:19.245Z,0.27
2022-12-22T03:51:16.016Z,-0.37
2022-12-22T03:52:12.860Z,-1.34
2022-12-22T03:53:09.668Z,0.94
2022-12-22T03:54:07.662Z,-0.76
2022-12-22T03:55:04.827Z,-0.08
2022-12-22T03:56:07.572Z,0.75
2022-12-22T03:57:04.894Z,0.94
2022-12-22T03:58:01.642Z,0.34
2022-12-22T03:59:01.349Z,0.29
2022-12-22T03:59:58.166Z,-1.18
2022-12-22T04:01:06.709Z,1.15
2022-12-22T04:02:03.613Z,0.20
2022-12-22T04:03:00.560Z,-0.12
2022-12-22T04:03:57.423Z,0.16
2022-12-22T04:04:54.210Z,-0.21
2022-12-22T04:05:50.992Z,-0.98
2022-12-22T04:06:48.125Z,-1.92
2022-12-22T04:07:44.875Z,0.14
2022-12-22T04:08:41.649Z,-1.28
2022-12-22T04:09:58.396Z,0.31
2022-12-22T04:11:13.639Z,0.27
2022-12-22T04:12:29.267Z,-1.08
2022-12-22T04:13:25.978Z,0.66
2022-12-22T04:14:26.637Z,0.88
2022-12-22T04:15:32.088Z,0.43
2022-12-22T04:16:29.473Z,0.29
2022-12-22T04:17:26.339Z,-0.37
2022-12-22T04:18:23.176Z,0.33
2022-12-22T04:19:20.005Z,0.07
2022-12-22T04:20:18.085Z,-0.95
2022-12-22T04:21:14.921Z,-0.14
2022-12-22T04:22:11.748Z,-0.58
2022-12-22T04:23:08.506Z,-0.75
2022-12-22T04:24:06.149Z,-2.12
2022-12-22T04:25:02.975Z,-0.92
2022-12-22T04:25:59.990Z,-2.22
2022-12-22T04:26:56.823Z,-0.57
2022-12-22T04:27:53.850Z,-0.18
2022-12-22T04:28:51.890Z,-0.32
2022-12-22T04:29:48.744Z,-0.81
2022-12-22T04:30:45.613Z,-1.62
2022-12-22T04:31:42.641Z,-1.47
2022-12-22T04:32:40.055Z,-0.90
2022-12-22T04:33:36.893Z,-1.77
2022-12-22T04:34:33.663Z,-1.15
2022-12-22T04:35:30.422Z,-1.46
2022-12-22T04:36:27.279Z,-0.86
2022-12-22T04:37:24.263Z,-0.72
2022-12-22T04:38:21.083Z,-0.77
2022-12-22T04:39:17.950Z,-1.27
2022-12-22T04:40:14.801Z,-0.37
2022-12-22T04:41:11.692Z,-0.14
2022-12-22T04:42:08.553Z,0.68
2022-12-22T04:43:05.688Z,1.27
2022-12-22T04:44:02.584Z,1.06
2022-12-22T04:44:59.347Z,0.78
2022-12-22T04:45:57.520Z,0.66
2022-12-22T04:46:54.356Z,0.95
2022-12-22T04:47:51.191Z,-0.30
2022-12-22T04:48:47.954Z,1.07
2022-12-22T04:49:44.870Z,0.65
2022-12-22T04:50:41.785Z,-0.66
2022-12-22T04:51:38.603Z,-0.44
2022-12-22T04:52:35.453Z,-1.70
2022-12-22T04:53:32.677Z,-2.01
2022-12-22T04:54:29.542Z,-1.17
2022-12-22T04:55:26.274Z,0.57
2022-12-22T04:56:23.113Z,-0.89
2022-12-22T04:57:21.440Z,-0.20
2022-12-22T04:58:18.284Z,0.70
2022-12-22T04:59:15.207Z,0.71
2022-12-22T05:00:12.492Z,1.06
2022-12-22T05:01:11.765Z,-0.34
2022-12-22T05:02:09.253Z,0.43
2022-12-22T05:03:07.584Z,-1.35
2022-12-22T05:04:04.566Z,-0.22
2022-12-22T05:05:01.402Z,-0.15
2022-12-22T05:06:00.935Z,-0.11
2022-12-22T05:06:57.798Z,-0.12
2022-12-22T05:07:54.677Z,-1.98
2022-12-22T05:08:51.491Z,-0.64
2022-12-22T05:09:48.257Z,-0.42
2022-12-22T05:10:45.086Z,-1.27
2022-12-22T05:11:41.934Z,-2.57
2022-12-22T05:12:56.990Z,-1.58
2022-12-22T05:13:53.836Z,-0.48
2022-12-22T05:14:50.558Z,-0.03
2022-12-22T05:15:47.507Z,-1.55
2022-12-22T05:16:44.397Z,-0.57
2022-12-22T05:17:41.242Z,-1.47
2022-12-22T05:18:39.206Z,-0.59
2022-12-22T05:19:35.927Z,-1.04
2022-12-22T05:20:35.674Z,-1.06
2022-12-22T05:21:32.462Z,0.75
2022-12-22T05:22:29.358Z,0.84
2022-12-22T05:23:26.236Z,-0.07
2022-12-22T05:24:22.980Z,0.20
2022-12-22T05:25:20.263Z,0.15
2022-12-22T05:26:19.084Z,-0.34
2022-12-22T05:27:16.051Z,-2.18
2022-12-22T05:28:12.829Z,-0.27
2022-12-22T05:29:09.576Z,-0.42
2022-12-22T05:30:07.161Z,-0.29
2022-12-22T05:31:09.400Z,-0.59
2022-12-22T05:32:06.397Z,-0.16
2022-12-22T05:33:03.335Z,-0.05
2022-12-22T05:34:00.249Z,0.74
2022-12-22T05:34:57.065Z,0.61
2022-12-22T05:35:53.859Z,-1.35
2022-12-22T05:36:50.635Z,0.16
2022-12-22T05:37:47.397Z,-1.27
2022-12-22T05:38:47.277Z,-2.97
2022-12-22T05:39:44.082Z,-0.27
2022-12-22T05:40:40.856Z,-0.25
2022-12-22T05:41:37.764Z,-0.52
2022-12-22T05:42:37.459Z,0.29
2022-12-22T05:43:35.282Z,-0.45
2022-12-22T05:44:32.127Z,0.39
2022-12-22T05:45:28.885Z,0.56
2022-12-22T05:46:25.691Z,0.38
2022-12-22T05:47:22.510Z,-1.00
2022-12-22T05:48:26.751Z,-0.83
2022-12-22T05:49:26.495Z,0.05
2022-12-22T05:50:25.537Z,0.36
2022-12-22T05:51:22.325Z,-0.25
2022-12-22T05:52:19.132Z,-0.84
2022-12-22T05:53:18.642Z,-0.25
2022-12-22T05:54:15.793Z,-0.66
2022-12-22T05:55:14.592Z,-1.39
2022-12-22T05:56:11.413Z,-0.60
2022-12-22T05:57:08.242Z,-0.38
2022-12-22T05:58:05.077Z,-0.64
2022-12-22T05:59:01.798Z,-0.12
2022-12-22T05:59:58.685Z,0.28
2022-12-22T06:00:59.489Z,0.32
2022-12-22T06:01:56.379Z,0.39
2022-12-22T06:02:53.277Z,0.34
2022-12-22T06:03:53.386Z,0.33
2022-12-22T06:04:54.704Z,-0.06
2022-12-22T06:05:51.606Z,0.52
2022-12-22T06:06:48.408Z,1.05
2022-12-22T06:07:45.468Z,-0.31
2022-12-22T06:08:42.300Z,0.35
2022-12-22T06:09:39.024Z,0.22
2022-12-22T06:10:35.753Z,-0.69
2022-12-22T06:11:32.514Z,0.29
2022-12-22T06:12:29.338Z,0.06
2022-12-22T06:13:26.773Z,-0.02
2022-12-22T06:14:23.727Z,-0.76
2022-12-22T06:15:20.548Z,-1.17
2022-12-22T06:16:17.449Z,0.05
2022-12-22T06:17:14.370Z,-0.05
2022-12-22T06:18:11.148Z,-0.17
2022-12-22T06:19:07.967Z,-0.29
2022-12-22T06:20:06.092Z,-0.32
2022-12-22T06:21:03.723Z,-1.34
2022-12-22T06:22:00.902Z,-0.13
2022-12-22T06:22:57.728Z,-0.45
2022-12-22T06:23:55.119Z,0.09
2022-12-22T06:24:51.915Z,-0.94
2022-12-22T06:26:02.907Z,0.31
2022-12-22T06:27:00.068Z,0.50
2022-12-22T06:27:57.047Z,0.45
2022-12-22T06:28:53.823Z,0.25
2022-12-22T06:29:50.728Z,1.52
2022-12-22T06:30:48.986Z,1.16
2022-12-22T06:31:45.898Z,1.24
2022-12-22T06:32:42.746Z,-1.58
2022-12-22T06:33:39.518Z,-0.73
2022-12-22T06:34:36.274Z,0.20
2022-12-22T06:35:33.205Z,-0.50
2022-12-22T06:36:29.960Z,0.12
2022-12-22T06:37:26.722Z,-2.83
2022-12-22T06:38:24.693Z,0.43
2022-12-22T06:39:22.243Z,0.44
2022-12-22T06:40:19.184Z,0.18
2022-12-22T06:41:36.153Z,-2.31
2022-12-22T06:42:51.403Z,-1.77
2022-12-22T06:43:48.232Z,0.91
2022-12-22T06:44:45.097Z,0.14
2022-12-22T06:45:43.815Z,0.49
2022-12-22T06:46:40.683Z,-0.86
2022-12-22T06:47:37.499Z,0.50
2022-12-22T06:48:34.285Z,0.21
2022-12-22T06:49:31.070Z,-0.57
2022-12-22T06:50:28.028Z,-0.12
2022-12-22T06:51:24.856Z,0.22
2022-12-22T06:52:21.678Z,0.55
2022-12-22T06:53:18.438Z,-0.76
2022-12-22T06:54:16.729Z,-1.11
2022-12-22T06:55:16.370Z,-0.26
2022-12-22T06:56:13.218Z,0.36
2022-12-22T06:57:10.119Z,0.57
2022-12-22T06:58:07.236Z,0.21
2022-12-22T06:59:04.003Z,0.42
2022-12-22T07:00:00.818Z,0.76
2022-12-22T07:00:57.510Z,-0.13
2022-12-22T07:01:54.402Z,1.11
2022-12-22T07:02:51.472Z,0.86
2022-12-22T07:03:48.414Z,1.51
2022-12-22T07:04:45.523Z,1.55
2022-12-22T07:05:42.262Z,1.02
2022-12-22T07:06:41.476Z,0.86
2022-12-22T07:07:38.492Z,-0.07
2022-12-22T07:08:35.361Z,0.69
2022-12-22T07:09:32.099Z,0.70
2022-12-22T07:10:47.360Z,0.67
2022-12-22T07:11:44.171Z,0.73
2022-12-22T07:12:40.943Z,0.47
2022-12-22T07:13:37.842Z,-0.42
2022-12-22T07:14:34.690Z,0.36
2022-12-22T07:15:31.461Z,0.77
2022-12-22T07:16:28.272Z,-1.37
2022-12-22T07:17:25.277Z,0.77
2022-12-22T07:18:22.109Z,0.60
2022-12-22T07:19:19.043Z,0.70
2022-12-22T07:20:15.872Z,1.11
2022-12-22T07:21:14.410Z,-0.29
2022-12-22T07:22:11.152Z,1.06
2022-12-22T07:23:08.733Z,1.53
2022-12-22T07:24:06.017Z,0.91
2022-12-22T07:25:21.217Z,1.26
2022-12-22T07:26:17.982Z,0.61
2022-12-22T07:27:14.753Z,1.60
2022-12-22T07:28:18.349Z,1.26
2022-12-22T07:29:18.195Z,-0.34
2022-12-22T07:30:15.081Z,0.85
2022-12-22T07:31:14.665Z,0.95
2022-12-22T07:32:11.467Z,0.78
2022-12-22T07:33:08.545Z,0.12
2022-12-22T07:34:05.305Z,-0.05
2022-12-22T07:35:05.521Z,0.91
2022-12-22T07:36:13.038Z,1.93
2022-12-22T07:37:09.931Z,1.93
2022-12-22T07:38:06.720Z,2.07
2022-12-22T07:39:03.679Z,0.62
2022-12-22T07:40:00.336Z,1.48
2022-12-22T07:41:04.596Z,0.04
2022-12-22T07:42:21.038Z,1.28
2022-12-22T07:43:17.819Z,1.41
2022-12-22T07:44:14.694Z,0.73
2022-12-22T07:45:19.848Z,0.99
2022-12-22T07:46:16.790Z,1.09
2022-12-22T07:47:13.614Z,0.32
2022-12-22T07:48:30.437Z,0.87
2022-12-22T07:49:45.767Z,0.87
2022-12-22T07:50:42.672Z,1.07
2022-12-22T07:51:41.591Z,1.25
2022-12-22T07:52:38.640Z,-0.04
2022-12-22T07:53:35.448Z,1.11
2022-12-22T07:54:41.102Z,0.19
2022-12-22T07:55:38.684Z,1.34
2022-12-22T07:56:35.890Z,0.46
2022-12-22T07:57:32.856Z,1.49
2022-12-22T07:58:29.667Z,0.80
2022-12-22T07:59:26.693Z,0.36
2022-12-22T08:00:24.345Z,-0.43
2022-12-22T08:01:21.440Z,0.12
2022-12-22T08:02:18.542Z,1.31
2022-12-22T08:03:15.584Z,1.72
2022-12-22T08:04:13.919Z,1.85
2022-12-22T08:05:13.872Z,1.91
2022-12-22T08:06:10.776Z,1.18
2022-12-22T08:07:17.785Z,2.06
2022-12-22T08:08:14.595Z,1.96
2022-12-22T08:09:15.748Z,2.02
2022-12-22T08:10:12.866Z,2.13
2022-12-22T08:11:09.763Z,2.02
2022-12-22T08:12:06.643Z,1.31
2022-12-22T08:13:03.549Z,1.80
2022-12-22T08:14:02.999Z,2.50
2022-12-22T08:14:59.861Z,2.40
2022-12-22T08:16:02.014Z,2.21
2022-12-22T08:16:58.836Z,2.56
2022-12-22T08:17:56.802Z,0.95
2022-12-22T08:18:53.637Z,2.21
2022-12-22T08:19:50.437Z,2.59
2022-12-22T08:20:51.635Z,2.82
2022-12-22T08:21:52.916Z,1.52
2022-12-22T08:22:50.161Z,2.90
2022-12-22T08:23:46.969Z,2.48
2022-12-22T08:24:43.812Z,1.80
2022-12-22T08:25:40.881Z,2.20
2022-12-22T08:26:49.978Z,2.99
2022-12-22T08:27:53.823Z,2.58
2022-12-22T08:29:01.927Z,2.67
2022-12-22T08:30:02.412Z,3.24
2022-12-22T08:31:02.109Z,2.94
2022-12-22T08:32:01.097Z,1.90
2022-12-22T08:32:57.986Z,3.26
2022-12-22T08:33:58.485Z,1.87
2022-12-22T08:34:55.303Z,3.46
2022-12-22T08:35:52.533Z,3.31
2022-12-22T08:36:52.794Z,3.29
2022-12-22T08:37:51.106Z,2.78
2022-12-22T08:38:51.640Z,2.34
2022-12-22T08:39:54.152Z,2.57
2022-12-22T08:40:51.387Z,2.90
2022-12-22T08:41:51.078Z,2.37
2022-12-22T08:42:52.435Z,1.80
2022-12-22T08:43:49.192Z,2.79
2022-12-22T08:44:47.405Z,2.52
2022-12-22T08:45:44.406Z,2.53
2022-12-22T08:46:41.270Z,2.62
2022-12-22T08:47:38.155Z,2.97
2022-12-22T08:48:35.114Z,3.27
2022-12-22T08:49:32.064Z,2.84
2022-12-22T08:50:28.806Z,3.17
2022-12-22T08:51:25.582Z,3.38
2022-12-22T08:52:22.346Z,2.69
2022-12-22T08:53:54.154Z,2.65
2022-12-22T08:54:37.120Z,2.84
2022-12-22T08:55:34.871Z,3.34
2022-12-22T08:56:31.821Z,3.16
2022-12-22T08:57:28.595Z,3.20
2022-12-22T08:58:25.316Z,2.86
2022-12-22T08:59:22.170Z,2.36
2022-12-22T09:00:19.293Z,2.78
2022-12-22T09:01:21.763Z,2.04
2022-12-22T09:02:18.825Z,2.98
2022-12-22T09:03:16.210Z,2.85
2022-12-22T09:04:16.247Z,2.94
2022-12-22T09:05:13.061Z,2.98
2022-12-22T09:06:09.830Z,3.27
2022-12-22T09:07:07.006Z,3.04
2022-12-22T09:08:04.123Z,3.51
2022-12-22T09:09:04.701Z,2.93
2022-12-22T09:10:01.578Z,3.93
2022-12-22T09:11:04.243Z,3.90
2022-12-22T09:12:03.013Z,3.92
2022-12-22T09:13:00.097Z,4.27
2022-12-22T09:13:59.769Z,3.28
2022-12-22T09:14:56.975Z,4.04
2022-12-22T09:15:53.716Z,4.14
2022-12-22T09:16:50.918Z,4.27
2022-12-22T09:17:48.313Z,3.49
2022-12-22T09:18:45.320Z,3.60
2022-12-22T09:19:42.393Z,4.30
2022-12-22T09:20:39.147Z,4.03
2022-12-22T09:21:36.438Z,2.84
2022-12-22T09:22:33.300Z,4.19
2022-12-22T09:23:33.000Z,3.71
2022-12-22T09:24:29.831Z,2.70
2022-12-22T09:25:26.820Z,4.41
2022-12-22T09:26:27.993Z,3.68
2022-12-22T09:27:24.886Z,3.97
2022-12-22T09:28:21.694Z,3.30
2022-12-22T09:29:18.549Z,3.26
2022-12-22T09:30:15.637Z,3.90
2022-12-22T09:31:12.819Z,2.89
2022-12-22T09:32:09.681Z,4.19
2022-12-22T09:33:06.547Z,3.85
2022-12-22T09:34:03.456Z,4.93
2022-12-22T09:35:00.324Z,4.30
2022-12-22T09:35:57.911Z,4.78
2022-12-22T09:36:54.722Z,4.09
2022-12-22T09:37:51.452Z,4.94
2022-12-22T09:38:48.566Z,4.15
2022-12-22T09:39:46.687Z,5.09
2022-12-22T09:40:43.810Z,4.98
2022-12-22T09:41:46.237Z,4.80
2022-12-22T09:42:46.367Z,4.29
2022-12-22T09:43:47.165Z,4.38
2022-12-22T09:44:51.893Z,4.47
2022-12-22T09:45:48.809Z,4.65
2022-12-22T09:46:45.838Z,4.18
2022-12-22T09:47:42.663Z,4.30
2022-12-22T09:48:39.519Z,3.40
2022-12-22T09:49:36.861Z,4.86
2022-12-22T09:50:38.719Z,4.88
2022-12-22T09:51:44.324Z,5.24
2022-12-22T09:52:48.518Z,5.07
2022-12-22T09:53:52.206Z,5.57
2022-12-22T09:54:50.527Z,5.71
2022-12-22T09:55:50.472Z,4.71
2022-12-22T09:56:47.277Z,5.83
2022-12-22T09:57:44.284Z,5.73
2022-12-22T09:58:45.463Z,5.13
2022-12-22T09:59:42.319Z,5.31
2022-12-22T10:00:39.820Z,5.11
2022-12-22T10:01:57.044Z,4.52
2022-12-22T10:05:28.582Z,5.37
2022-12-22T10:06:52.534Z,4.36
2022-12-22T10:07:49.317Z,5.32
2022-12-22T10:08:46.227Z,4.11
2022-12-22T10:09:50.139Z,4.37
2022-12-22T10:10:54.515Z,5.63
2022-12-22T10:12:02.642Z,5.98
2022-12-22T10:13:02.240Z,4.63
2022-12-22T10:13:59.052Z,5.12
2022-12-22T10:14:56.054Z,5.64
2022-12-22T10:15:53.319Z,5.56
2022-12-22T10:16:50.128Z,5.84
2022-12-22T10:17:55.433Z,4.99
2022-12-22T10:18:58.574Z,5.80
2022-12-22T10:20:14.571Z,4.78
2022-12-22T10:21:14.944Z,5.89
2022-12-22T10:22:20.712Z,6.11
2022-12-22T10:23:22.989Z,5.28
2022-12-22T10:24:37.426Z,6.08
2022-12-22T10:27:00.572Z,6.51
2022-12-22T10:28:00.374Z,6.70
2022-12-22T10:29:06.892Z,6.69
2022-12-22T10:30:24.572Z,6.80
2022-12-22T10:31:26.180Z,6.82
2022-12-22T10:32:23.133Z,6.00
2022-12-22T10:33:20.112Z,6.91
2022-12-22T10:34:18.145Z,5.97
2022-12-22T10:35:14.959Z,7.02
2022-12-22T10:36:13.933Z,6.88
2022-12-22T10:37:10.894Z,6.72
2022-12-22T10:38:38.539Z,7.03
2022-12-22T10:39:38.564Z,6.01
2022-12-22T10:40:44.602Z,7.01
2022-12-22T10:41:49.649Z,6.05
2022-12-22T10:42:55.268Z,5.70
2022-12-22T10:43:53.371Z,6.66
2022-12-22T10:44:50.931Z,5.91
2022-12-22T10:45:49.784Z,7.05
2022-12-22T10:46:50.580Z,7.11
2022-12-22T10:47:51.994Z,7.32
2022-12-22T10:48:49.079Z,7.26
2022-12-22T10:50:50.060Z,6.95
2022-12-22T10:51:52.186Z,7.10
2022-12-22T10:52:59.024Z,6.57
2022-12-22T10:53:56.737Z,6.17
2022-12-22T10:55:19.330Z,7.32
2022-12-22T10:56:24.300Z,6.57
2022-12-22T10:57:29.171Z,6.47
2022-12-22T10:58:26.015Z,6.75
2022-12-22T10:59:24.054Z,6.94
2022-12-22T11:00:31.950Z,5.69
2022-12-22T11:01:36.003Z,7.11
2022-12-22T11:02:34.723Z,7.51
2022-12-22T11:03:32.880Z,6.68
2022-12-22T11:04:29.959Z,7.31
2022-12-22T11:05:28.314Z,5.94
2022-12-22T11:06:25.237Z,7.67
2022-12-22T11:07:23.699Z,7.88
2022-12-22T11:08:21.238Z,7.37
2022-12-22T11:09:33.247Z,7.29
2022-12-22T11:10:38.436Z,6.86
2022-12-22T11:11:42.998Z,7.25
2022-12-22T11:13:22.769Z,7.71
2022-12-22T11:14:41.260Z,7.30
2022-12-22T11:16:18.207Z,7.26
2022-12-22T11:17:36.173Z,7.43
2022-12-22T11:18:57.211Z,7.76
2022-12-22T11:20:23.607Z,7.77
2022-12-22T11:21:36.629Z,7.93
2022-12-22T11:22:54.261Z,8.16
2022-12-22T11:24:01.615Z,8.32
2022-12-22T11:25:13.623Z,8.27
2022-12-22T11:26:55.774Z,7.92
2022-12-22T11:28:12.999Z,8.04
2022-12-22T11:29:31.231Z,8.03
2022-12-22T11:30:40.421Z,6.60
2022-12-22T11:32:08.281Z,7.31
2022-12-22T11:33:46.276Z,7.51
2022-12-22T11:34:51.981Z,6.30
2022-12-22T11:35:59.318Z,6.99
2022-12-22T11:37:04.898Z,7.50
2022-12-22T11:38:20.709Z,7.59
2022-12-22T11:39:44.713Z,7.65
2022-12-22T11:40:49.790Z,6.52
2022-12-22T11:42:17.751Z,7.97
2022-12-22T11:43:22.533Z,7.95
2022-12-22T11:44:35.603Z,7.78
2022-12-22T11:45:50.990Z,8.01
2022-12-22T11:47:12.151Z,7.65
2022-12-22T11:48:30.517Z,8.12
2022-12-22T11:49:39.700Z,7.38
2022-12-22T11:51:02.119Z,7.29
2022-12-22T11:52:22.651Z,7.96
2022-12-22T11:53:22.411Z,8.11
2022-12-22T11:54:46.673Z,8.18
2022-12-22T11:56:05.920Z,8.03
2022-12-22T11:57:24.856Z,8.30
2022-12-22T11:59:06.316Z,8.30
2022-12-22T12:00:14.279Z,8.09
2022-12-22T12:01:24.101Z,8.06
2022-12-22T12:02:41.435Z,8.23
2022-12-22T12:04:14.070Z,8.20
2022-12-22T12:05:28.872Z,7.49
2022-12-22T12:06:59.721Z,8.39
2022-12-22T12:08:34.030Z,8.53
2022-12-22T12:09:43.385Z,7.65
2022-12-22T12:10:52.139Z,8.48
2022-12-22T12:12:14.777Z,7.49
2022-12-22T12:13:36.610Z,8.28
2022-12-22T12:14:55.544Z,8.22
2022-12-22T12:16:26.019Z,8.38
2022-12-22T12:17:50.501Z,8.11
2022-12-22T12:19:10.618Z,8.22
2022-12-22T12:20:16.340Z,8.23
2022-12-22T12:21:26.628Z,8.33
2022-12-22T12:22:46.992Z,8.35
2022-12-22T12:23:59.459Z,8.56
2022-12-22T12:25:02.102Z,8.32
2022-12-22T12:26:22.291Z,7.49
2022-12-22T12:27:27.774Z,8.44
2022-12-22T12:29:06.290Z,8.61
2022-12-22T12:31:54.306Z,8.91
2022-12-22T12:32:56.253Z,8.96
2022-12-22T12:34:01.049Z,8.82
2022-12-22T12:35:21.026Z,8.81
2022-12-22T12:36:37.336Z,9.00
2022-12-22T12:37:38.981Z,8.92
2022-12-22T12:39:07.429Z,8.86
2022-12-22T12:40:20.168Z,8.79
2022-12-22T12:41:37.017Z,8.60
2022-12-22T12:42:42.342Z,8.73
2022-12-22T12:43:42.030Z,9.00
2022-12-22T12:44:40.236Z,8.42
2022-12-22T12:45:41.159Z,9.16
2022-12-22T12:46:51.679Z,8.47
2022-12-22T12:47:48.555Z,9.19
2022-12-22T12:48:45.378Z,8.54
2022-12-22T12:49:55.204Z,9.07
2022-12-22T12:50:53.173Z,8.53
2022-12-22T12:51:50.120Z,8.69
2022-12-22T12:52:48.809Z,9.17
2022-12-22T12:54:37.594Z,9.19
2022-12-22T12:55:40.001Z,8.79
2022-12-22T12:56:59.010Z,6.95
2022-12-22T12:57:58.088Z,8.89
2022-12-22T12:58:55.388Z,8.56
2022-12-22T12:59:55.332Z,9.07
2022-12-22T13:00:58.490Z,9.11
2022-12-22T13:01:58.731Z,9.36
2022-12-22T13:02:57.934Z,9.13
2022-12-22T13:04:05.815Z,9.36
2022-12-22T13:05:11.920Z,9.32
2022-12-22T13:06:31.151Z,7.71
2022-12-22T13:08:04.728Z,9.09
2022-12-22T13:09:48.730Z,8.76
2022-12-22T13:10:25.789Z,7.92
2022-12-22T13:12:11.174Z,8.20
2022-12-22T13:12:55.508Z,7.66
2022-12-22T13:13:53.449Z,8.88
2022-12-22T13:14:56.730Z,9.19
2022-12-22T13:15:59.685Z,8.87
2022-12-22T13:17:39.675Z,8.96
2022-12-22T13:18:49.962Z,8.54
2022-12-22T13:19:51.899Z,5.48
2022-12-22T13:21:18.718Z,8.84
2022-12-22T13:22:21.277Z,8.89
2022-12-22T13:23:18.192Z,8.94
2022-12-22T13:24:26.910Z,9.17
2022-12-22T13:25:36.594Z,8.64
2022-12-22T13:26:38.021Z,9.08
2022-12-22T13:27:36.982Z,9.08
2022-12-22T13:28:39.566Z,7.95
2022-12-22T13:29:43.513Z,8.83
2022-12-22T13:30:52.303Z,8.87
2022-12-22T13:31:56.598Z,9.02
2022-12-22T13:32:53.867Z,8.83
2022-12-22T13:34:57.306Z,8.89
2022-12-22T13:35:59.284Z,8.88
2022-12-22T13:37:02.719Z,8.54
2022-12-22T13:37:59.709Z,8.92
2022-12-22T13:39:06.032Z,8.55
2022-12-22T13:40:18.056Z,7.68
2022-12-22T13:41:26.964Z,8.57
2022-12-22T13:42:24.651Z,8.42
2022-12-22T13:43:21.784Z,8.39
2022-12-22T13:44:29.014Z,7.31
2022-12-22T13:45:31.456Z,8.22
2022-12-22T13:46:28.280Z,8.31
2022-12-22T13:47:25.760Z,8.31
2022-12-22T13:48:31.142Z,8.13
2022-12-22T13:50:06.500Z,8.24
2022-12-22T13:51:00.909Z,8.05
2022-12-22T13:52:05.546Z,5.75
2022-12-22T13:53:08.349Z,8.39
2022-12-22T13:54:17.289Z,8.13
2022-12-22T13:55:22.049Z,6.22
2022-12-22T13:56:38.423Z,7.63
2022-12-22T13:57:35.296Z,7.95
2022-12-22T13:58:39.223Z,8.25
2022-12-22T13:59:45.459Z,8.05
2022-12-22T14:00:42.378Z,8.10
2022-12-22T14:01:50.302Z,8.06
2022-12-22T14:02:47.413Z,7.05
2022-12-22T14:04:01.904Z,8.27
2022-12-22T14:05:07.665Z,8.27
2022-12-22T14:06:32.471Z,8.13
2022-12-22T14:07:29.263Z,8.11
2022-12-22T14:08:26.047Z,7.61
2022-12-22T14:09:27.991Z,8.33
2022-12-22T14:10:42.242Z,8.16
2022-12-22T14:11:42.888Z,6.56
2022-12-22T14:12:47.313Z,7.87
2022-12-22T14:13:44.810Z,7.87
2022-12-22T14:14:45.663Z,6.65
2022-12-22T14:15:44.257Z,7.30
2022-12-22T14:16:55.930Z,8.18
2022-12-22T14:17:53.515Z,6.46
2022-12-22T14:18:53.185Z,7.69
2022-12-22T14:19:53.807Z,7.90
2022-12-22T14:20:52.506Z,7.25
2022-12-22T14:22:00.044Z,7.88
2022-12-22T14:23:16.326Z,7.32
2022-12-22T14:24:22.497Z,7.18
2022-12-22T14:25:26.502Z,7.25
2022-12-22T14:26:30.244Z,6.80
2022-12-22T14:27:38.667Z,7.63
2022-12-22T14:28:51.018Z,7.64
2022-12-22T14:29:48.265Z,7.66
2022-12-22T14:30:50.438Z,7.54
2022-12-22T14:32:02.661Z,5.71
2022-12-22T14:33:18.637Z,6.58
2022-12-22T14:34:34.835Z,7.00
2022-12-22T14:35:31.797Z,7.19